Time;durP1;ratioP1;P1;durP2;ratioP2;P2;SDS_P1;SDS_P2;PMS_P1;PMS_P2;Temp;Humidity;BMP_temperature;BMP_pressure;BME280_temperature;BME280_humidity;BME280_pressure;Samples;Min_cycle;Max_cycle;Signal;HPM_P1;HPM_P2
2022/04/04 00:02:14;;;;;;;7.45;4.97;;;;;;;4.38;61.77;100743.44;5067271;28;20043;-86
2022/04/04 00:04:42;;;;;;;9.52;6.20;;;;;;;4.25;61.40;100729.19;5068829;28;20507;-86
2022/04/04 00:07:10;;;;;;;9.48;4.68;;;;;;;4.33;61.20;100737.19;5040152;28;20052;-85
2022/04/04 00:09:36;;;;;;;8.80;5.25;;;;;;;4.19;61.64;100735.06;5046383;28;20087;-87
2022/04/04 00:12:03;;;;;;;7.80;4.18;;;;;;;4.13;62.24;100734.88;5025558;28;20042;-85
2022/04/04 00:14:29;;;;;;;8.73;5.60;;;;;;;3.93;62.47;100759.31;5073220;28;20089;-86
2022/04/04 00:16:55;;;;;;;12.43;5.18;;;;;;;4.06;63.02;100787.44;5035621;28;20085;-86
2022/04/04 00:19:22;;;;;;;9.32;5.93;;;;;;;3.95;62.70;100765.44;5066319;28;20048;-86
2022/04/04 00:21:51;;;;;;;7.35;4.97;;;;;;;3.83;62.48;100760.75;5072045;28;20108;-87
2022/04/04 00:24:22;;;;;;;8.13;5.43;;;;;;;4.19;63.13;100757.53;5067035;28;20032;-83
2022/04/04 00:26:48;;;;;;;6.95;5.03;;;;;;;4.25;62.60;100762.06;5062087;28;20080;-83
2022/04/04 00:29:13;;;;;;;10.23;5.80;;;;;;;4.24;62.46;100761.19;5063473;28;20549;-83
2022/04/04 00:31:39;;;;;;;7.15;4.93;;;;;;;4.04;62.62;100770.94;5060168;28;20052;-83
2022/04/04 00:34:05;;;;;;;7.90;5.90;;;;;;;4.42;62.88;100800.75;5062455;28;20033;-83
2022/04/04 00:36:30;;;;;;;8.10;5.80;;;;;;;4.22;63.79;100807.00;5061438;28;20035;-84
2022/04/04 00:38:56;;;;;;;8.23;5.10;;;;;;;3.89;64.08;100781.72;5030396;28;20047;-83
2022/04/04 00:41:21;;;;;;;8.77;5.97;;;;;;;3.89;63.53;100771.34;5057023;28;20384;-84
2022/04/04 00:43:51;;;;;;;11.27;6.70;;;;;;;4.23;63.64;100800.97;5061556;28;20032;-82
2022/04/04 00:46:17;;;;;;;6.80;5.03;;;;;;;3.69;64.66;100799.19;5063336;28;20170;-83
2022/04/04 00:48:43;;;;;;;12.15;6.72;;;;;;;3.62;63.44;100780.78;5047828;28;20511;-83
2022/04/04 00:51:09;;;;;;;7.10;5.63;;;;;;;3.80;63.37;100776.22;5041339;28;20033;-83
2022/04/04 00:53:36;;;;;;;8.38;5.47;;;;;;;3.66;63.88;100773.16;5062316;28;20526;-85
2022/04/04 00:56:02;;;;;;;8.85;5.35;;;;;;;3.94;62.98;100785.34;5059344;28;20055;-85
2022/04/04 00:58:30;;;;;;;6.13;4.47;;;;;;;3.61;63.98;100789.41;5039950;28;20040;-86
2022/04/04 01:00:56;;;;;;;9.07;4.88;;;;;;;3.96;64.12;100813.97;5027315;28;20044;-87
2022/04/04 01:03:22;;;;;;;7.72;5.38;;;;;;;3.62;64.65;100804.13;5063634;28;20028;-86
2022/04/04 01:05:48;;;;;;;8.85;5.78;;;;;;;3.78;64.60;100796.91;5042641;28;20027;-86
2022/04/04 01:08:15;;;;;;;7.82;5.25;;;;;;;3.92;64.51;100827.66;5065551;28;20386;-84
2022/04/04 01:10:42;;;;;;;10.30;5.65;;;;;;;4.01;64.94;100830.56;5028612;28;20090;-83
2022/04/04 01:13:10;;;;;;;6.60;5.05;;;;;;;4.16;64.35;100819.78;5043748;28;20039;-85
2022/04/04 01:15:37;;;;;;;6.63;5.07;;;;;;;4.00;63.96;100832.28;5051629;28;20084;-85
2022/04/04 01:18:04;;;;;;;7.60;5.28;;;;;;;3.76;64.72;100792.50;5067706;28;20535;-83
2022/04/04 01:20:32;;;;;;;13.23;6.00;;;;;;;3.79;65.82;100811.69;5056137;28;20044;-83
2022/04/04 01:22:59;;;;;;;8.15;5.57;;;;;;;3.63;65.10;100800.69;5066530;28;20040;-82
2022/04/04 01:25:30;;;;;;;7.47;5.57;;;;;;;3.41;64.84;100832.81;5064353;28;20036;-84
2022/04/04 01:27:57;;;;;;;7.80;5.32;;;;;;;3.45;65.90;100827.78;5061039;28;20043;-83
2022/04/04 01:30:26;;;;;;;9.43;5.13;;;;;;;3.10;66.36;100814.44;5068748;28;20039;-83
2022/04/04 01:32:53;;;;;;;8.60;5.68;;;;;;;3.53;65.77;100820.25;5030849;28;20028;-83
2022/04/04 01:35:20;;;;;;;6.90;4.47;;;;;;;3.42;65.18;100819.00;5063311;28;20466;-81
2022/04/04 01:37:47;;;;;;;9.32;5.57;;;;;;;3.59;66.04;100838.66;5066699;28;20052;-81
2022/04/04 01:40:17;;;;;;;7.72;5.47;;;;;;;4.00;64.33;100832.28;5050064;28;20032;-81
2022/04/04 01:42:52;;;;;;;8.38;6.55;;;;;;;3.81;65.04;100858.44;5039588;28;20048;-81
2022/04/04 01:45:18;;;;;;;7.97;5.70;;;;;;;4.04;64.48;100833.25;5053759;28;20037;-82
2022/04/04 01:47:51;;;;;;;8.23;5.32;;;;;;;4.50;64.23;100846.88;5068081;28;20058;-84
2022/04/04 01:50:17;;;;;;;9.57;4.90;;;;;;;4.71;64.46;100867.44;5055693;28;20048;-83
2022/04/04 01:53:25;;;;;;;8.63;5.88;;;;;;;4.37;63.99;100822.19;5056863;28;20597;-84
2022/04/04 01:55:29;;;;;;;8.10;4.53;;;;;;;4.50;63.71;100846.88;5067377;28;20051;-82
2022/04/04 01:57:55;;;;;;;7.43;5.85;;;;;;;4.27;63.11;100844.41;5063686;28;20064;-82
2022/04/04 02:00:22;;;;;;;8.52;5.15;;;;;;;3.83;64.93;100851.59;5066273;28;20111;-81
2022/04/04 02:02:48;;;;;;;8.55;5.75;;;;;;;4.11;63.47;100842.13;5046478;28;20059;-80
2022/04/04 02:05:14;;;;;;;7.55;6.22;;;;;;;4.14;63.40;100884.66;5062961;28;20119;-80
2022/04/04 02:07:40;;;;;;;9.20;6.00;;;;;;;3.93;63.86;100845.91;5064485;28;22608;-81
2022/04/04 02:10:07;;;;;;;7.45;5.35;;;;;;;3.90;64.13;100850.09;5046129;28;20048;-82
2022/04/04 02:12:34;;;;;;;6.72;4.88;;;;;;;4.11;63.41;100855.13;5035466;28;20068;-81
2022/04/04 02:15:01;;;;;;;11.07;5.60;;;;;;;3.63;64.80;100883.72;5061500;28;20032;-80
2022/04/04 02:17:28;;;;;;;9.23;5.57;;;;;;;3.83;63.52;100843.78;5046959;28;20041;-85
2022/04/04 02:19:53;;;;;;;9.75;7.03;;;;;;;3.91;66.15;100880.38;5022867;28;20048;-81
2022/04/04 02:22:20;;;;;;;8.30;5.97;;;;;;;3.79;64.43;100888.63;5056471;28;20044;-81
2022/04/04 02:24:46;;;;;;;8.73;6.25;;;;;;;3.74;65.01;100892.78;5055644;28;20040;-81
2022/04/04 02:27:13;;;;;;;9.50;6.70;;;;;;;3.93;65.52;100850.19;5054555;28;20462;-82
2022/04/04 02:29:39;;;;;;;8.95;6.35;;;;;;;4.02;65.10;100834.91;5040252;28;20055;-82
2022/04/04 02:32:05;;;;;;;9.88;6.38;;;;;;;4.02;65.06;100847.91;5044642;28;20093;-81
2022/04/04 02:34:32;;;;;;;7.88;5.63;;;;;;;4.10;64.61;100849.06;5053364;28;20043;-79
2022/04/04 02:36:58;;;;;;;9.75;6.50;;;;;;;3.92;64.16;100849.31;5041669;28;20052;-81
2022/04/04 02:39:24;;;;;;;12.30;5.28;;;;;;;3.94;64.49;100859.75;5024423;28;20424;-80
2022/04/04 02:41:55;;;;;;;10.68;6.03;;;;;;;3.62;65.95;100885.44;5056807;28;20044;-82
2022/04/04 02:44:22;;;;;;;7.40;5.63;;;;;;;3.39;66.44;100837.94;5059004;28;20045;-80
2022/04/04 02:46:49;;;;;;;8.20;5.80;;;;;;;3.94;66.07;100849.38;5057385;28;20455;-82
2022/04/04 02:49:15;;;;;;;12.30;7.80;;;;;;;4.33;64.27;100861.88;5056851;28;20075;-81
2022/04/04 02:51:41;;;;;;;15.73;6.63;;;;;;;4.59;65.42;100886.13;5058721;28;20456;-81
2022/04/04 02:54:07;;;;;;;8.85;5.85;;;;;;;4.48;65.47;100856.31;5040305;28;20063;-83
2022/04/04 02:56:33;;;;;;;10.98;6.03;;;;;;;4.13;66.16;100861.25;5053487;28;20044;-81
2022/04/04 02:59:03;;;;;;;6.90;5.65;;;;;;;4.65;66.72;100902.78;5056097;28;20052;-83
2022/04/04 03:01:31;;;;;;;6.60;5.00;;;;;;;4.72;66.53;100858.78;5029648;28;20127;-79
2022/04/04 03:03:58;;;;;;;7.47;5.25;;;;;;;4.98;66.24;100880.38;5059329;28;21530;-82
2022/04/04 03:06:23;;;;;;;9.23;5.65;;;;;;;4.55;66.87;100855.69;5055365;28;20036;-80
2022/04/04 03:08:49;;;;;;;5.85;5.18;;;;;;;4.46;67.18;100882.25;5057182;28;20103;-79
2022/04/04 03:11:15;;;;;;;7.75;5.35;;;;;;;4.28;67.30;100905.91;5029433;28;20095;-80
2022/04/04 03:13:41;;;;;;;6.72;5.65;;;;;;;4.14;67.73;100874.25;5035927;28;20740;-83
2022/04/04 03:16:07;;;;;;;6.40;5.80;;;;;;;4.25;67.47;100885.03;5055713;28;20075;-83
2022/04/04 03:18:35;;;;;;;8.75;6.35;;;;;;;4.59;67.99;100926.00;5026216;28;20044;-84
2022/04/04 03:21:01;;;;;;;10.73;6.90;;;;;;;3.58;70.08;100902.63;5034219;28;20027;-81
2022/04/04 03:23:27;;;;;;;7.28;5.93;;;;;;;3.45;70.14;100879.66;5025654;28;20067;-83
2022/04/04 03:25:54;;;;;;;9.10;6.57;;;;;;;3.45;71.53;100904.72;5042889;28;20503;-82
2022/04/04 03:28:20;;;;;;;10.50;6.95;;;;;;;4.25;69.23;100899.72;5027814;28;20048;-83
2022/04/04 03:30:46;;;;;;;7.53;6.22;;;;;;;4.30;68.97;100896.44;5041610;28;20044;-82
2022/04/04 03:33:13;;;;;;;10.38;7.28;;;;;;;3.79;70.21;100893.81;5044088;28;20064;-81
2022/04/04 03:35:38;;;;;;;11.02;8.27;;;;;;;4.24;69.33;100898.84;5026280;28;20041;-82
2022/04/04 03:38:06;;;;;;;10.65;7.47;;;;;;;4.15;69.25;100927.13;5040050;28;20040;-83
2022/04/04 03:40:32;;;;;;;8.55;6.63;;;;;;;4.44;69.59;100934.16;5028714;28;20040;-82
2022/04/04 03:43:05;;;;;;;8.75;7.07;;;;;;;4.58;68.76;100939.81;5042365;28;20068;-82
2022/04/04 03:45:31;;;;;;;9.85;7.38;;;;;;;4.62;69.09;100938.19;5042686;28;20059;-82
2022/04/04 03:47:58;;;;;;;9.70;7.22;;;;;;;3.90;69.89;100900.28;5041038;28;20484;-81
2022/04/04 03:50:27;;;;;;;10.20;7.00;;;;;;;3.60;72.24;100939.00;5036825;28;20033;-81
2022/04/04 03:52:55;;;;;;;10.00;7.47;;;;;;;3.19;73.80;100906.34;5042503;28;20052;-81
2022/04/04 03:55:24;;;;;;;14.77;8.52;;;;;;;3.41;73.07;100916.69;5041777;28;20037;-81
2022/04/04 03:57:51;;;;;;;13.25;8.70;;;;;;;4.07;72.53;100955.38;5026833;28;20057;-83
2022/04/04 04:00:19;;;;;;;9.18;7.55;;;;;;;4.20;72.06;100933.34;5024874;28;20107;-80
2022/04/04 04:02:45;;;;;;;14.57;7.85;;;;;;;4.47;71.48;100950.69;5035372;28;20374;-81
2022/04/04 04:05:11;;;;;;;8.52;7.47;;;;;;;4.30;71.13;100916.34;5045740;28;20056;-81
2022/04/04 04:07:37;;;;;;;11.18;8.20;;;;;;;4.60;70.75;100951.13;5011661;28;20056;-80
2022/04/04 04:10:04;;;;;;;13.27;8.00;;;;;;;4.42;70.48;100928.03;5042514;28;20385;-80
2022/04/04 04:12:31;;;;;;;14.40;7.65;;;;;;;4.61;70.08;100959.81;5022776;28;20428;-84
2022/04/04 04:14:57;;;;;;;7.95;7.15;;;;;;;4.64;70.39;100972.94;5026497;28;20021;-84
2022/04/04 04:17:24;;;;;;;11.65;8.88;;;;;;;4.51;70.50;100932.63;5030302;28;20064;-80
2022/04/04 04:22:45;;;;;;;8.60;7.70;;;;;;;4.41;70.76;100935.78;5059654;28;20140;-81
2022/04/04 04:25:14;;;;;;;11.40;8.55;;;;;;;4.48;70.69;100960.25;5041171;28;20033;-80
2022/04/04 04:27:42;;;;;;;13.35;8.32;;;;;;;4.53;70.10;100953.50;5037699;28;20136;-79
2022/04/04 04:30:08;;;;;;;9.27;7.63;;;;;;;4.47;70.32;100955.88;5038589;28;20033;-81
2022/04/04 04:32:35;;;;;;;9.43;7.90;;;;;;;4.46;70.39;100955.00;5055531;28;20047;-80
2022/04/04 04:35:01;;;;;;;10.20;7.32;;;;;;;4.26;71.06;100976.81;5055763;28;20709;-83
2022/04/04 04:37:28;;;;;;;10.52;7.18;;;;;;;4.32;71.05;100966.63;5040647;28;20509;-79
2022/04/04 04:39:55;;;;;;;18.15;7.63;;;;;;;4.47;70.73;100987.94;5056414;28;20048;-83
2022/04/04 04:42:20;;;;;;;11.07;7.78;;;;;;;4.29;71.30;100984.72;5053869;28;20020;-83
2022/04/04 04:44:46;;;;;;;9.25;8.27;;;;;;;4.38;71.46;100985.06;5057998;28;20070;-81
2022/04/04 04:47:14;;;;;;;13.13;7.40;;;;;;;4.26;70.84;100990.72;5044813;28;20136;-83
2022/04/04 04:49:39;;;;;;;15.93;8.75;;;;;;;4.44;69.77;100980.91;5045129;28;20045;-82
2022/04/04 04:52:15;;;;;;;10.02;7.65;;;;;;;4.52;70.66;101024.47;5053501;28;20143;-85
2022/04/04 04:54:43;;;;;;;17.75;8.85;;;;;;;4.82;69.68;101017.72;5059601;28;20039;-87
2022/04/04 04:57:08;;;;;;;11.20;8.85;;;;;;;4.79;69.35;101020.22;5047142;28;20048;-85
2022/04/04 04:59:37;;;;;;;9.15;7.88;;;;;;;4.52;69.62;100982.88;5043355;28;20033;-87
2022/04/04 05:02:03;;;;;;;11.57;8.15;;;;;;;4.74;68.92;100985.38;5070214;28;20551;-84
2022/04/04 05:04:32;;;;;;;11.20;8.43;;;;;;;4.80;68.29;100990.78;5071466;28;20063;-83
2022/04/04 05:06:57;;;;;;;12.70;7.93;;;;;;;4.53;69.01;100976.88;5049250;28;20115;-82
2022/04/04 05:09:23;;;;;;;9.23;8.13;;;;;;;4.48;69.02;101000.09;5066834;28;20055;-82
2022/04/04 05:11:48;;;;;;;10.77;7.47;;;;;;;5.07;67.49;101008.97;5075494;28;20043;-85
2022/04/04 05:14:17;;;;;;;16.17;7.60;;;;;;;5.11;67.25;101037.72;5080547;28;20048;-85
2022/04/04 05:16:45;;;;;;;9.02;7.18;;;;;;;4.02;69.13;101040.91;5055180;28;20131;-83
2022/04/04 05:19:12;;;;;;;12.25;7.75;;;;;;;4.08;70.52;101016.91;5058804;28;20052;-86
2022/04/04 05:21:42;;;;;;;13.55;8.63;;;;;;;4.38;69.89;101034.41;5048619;28;20048;-86
2022/04/04 05:24:08;;;;;;;8.77;7.30;;;;;;;4.19;69.97;101043.22;5020218;28;20037;-84
2022/04/04 05:26:33;;;;;;;7.70;6.80;;;;;;;4.44;69.64;101022.50;5046137;28;20044;-85
2022/04/04 05:29:01;;;;;;;8.55;6.85;;;;;;;5.35;66.00;101016.78;4999614;28;20041;-85
2022/04/04 05:31:31;;;;;;;10.75;8.00;;;;;;;5.53;64.00;101064.19;5028774;28;20045;-83
2022/04/04 05:34:01;;;;;;;15.55;8.07;;;;;;;6.10;63.85;101025.09;5040443;28;20041;-82
2022/04/04 05:36:28;;;;;;;14.02;7.35;;;;;;;7.23;61.10;101046.25;5045742;28;20024;-83
2022/04/04 05:38:55;;;;;;;10.40;6.75;;;;;;;6.45;60.40;101045.16;5010437;28;20029;-83
2022/04/04 05:41:21;;;;;;;8.52;7.53;;;;;;;7.84;58.90;101034.56;5018456;28;20453;-82
2022/04/04 05:43:49;;;;;;;11.55;7.28;;;;;;;8.38;57.58;101056.56;5042602;28;20068;-83
2022/04/04 05:46:16;;;;;;;8.45;7.40;;;;;;;8.28;55.73;101021.53;5009020;28;20046;-86
2022/04/04 05:48:43;;;;;;;8.63;7.72;;;;;;;6.69;57.94;101032.75;5021546;28;20188;-85
2022/04/04 05:51:10;;;;;;;13.73;7.80;;;;;;;7.60;58.63;101037.53;5029702;28;20031;-82
2022/04/04 05:53:36;;;;;;;11.88;8.07;;;;;;;7.33;58.11;101048.25;5035290;28;20175;-83
2022/04/04 05:56:06;;;;;;;11.38;8.02;;;;;;;6.91;59.44;101039.41;5046037;28;20055;-85
2022/04/04 05:58:33;;;;;;;11.77;9.27;;;;;;;7.51;58.62;101042.56;5033246;28;22448;-81
2022/04/04 06:00:59;;;;;;;13.02;9.27;;;;;;;8.23;58.87;101078.06;5026997;28;20049;-83
2022/04/04 06:03:25;;;;;;;13.05;8.45;;;;;;;9.10;55.85;101084.06;5023872;28;20033;-82
2022/04/04 06:05:51;;;;;;;9.77;7.45;;;;;;;9.21;54.23;101060.69;5042827;28;20068;-82
2022/04/04 06:08:23;;;;;;;23.77;8.50;;;;;;;9.20;53.73;101043.22;5037639;28;20187;-83
2022/04/04 06:10:49;;;;;;;11.93;9.07;;;;;;;8.43;54.23;101057.59;5039955;28;20064;-81
2022/04/04 06:13:19;;;;;;;10.60;9.30;;;;;;;8.57;55.88;101053.50;5029916;28;20373;-85
2022/04/04 06:15:46;;;;;;;10.27;8.65;;;;;;;8.03;56.91;101056.78;5040232;28;20040;-81
2022/04/04 06:18:14;;;;;;;12.15;9.15;;;;;;;8.06;56.79;101064.66;5035169;28;20469;-87
2022/04/04 06:20:41;;;;;;;9.45;8.23;;;;;;;7.75;57.87;101065.72;5045913;28;20070;-82
2022/04/04 06:23:08;;;;;;;14.52;8.68;;;;;;;7.90;57.84;101059.97;5062170;28;20048;-82
2022/04/04 06:25:34;;;;;;;14.45;9.20;;;;;;;8.27;57.43;101098.22;5027952;28;20056;-83
2022/04/04 06:28:00;;;;;;;10.05;7.82;;;;;;;6.01;62.60;101076.06;5062339;28;20387;-83
2022/04/04 06:30:27;;;;;;;10.43;8.60;;;;;;;7.01;61.09;101055.31;5061209;28;20045;-83
2022/04/04 06:32:53;;;;;;;10.25;8.20;;;;;;;7.17;60.37;101073.09;5061619;28;20073;-83
2022/04/04 06:35:19;;;;;;;11.30;9.10;;;;;;;5.90;63.17;101083.56;5063376;28;20049;-83
2022/04/04 06:37:48;;;;;;;10.48;9.07;;;;;;;6.46;64.13;101110.41;5048211;28;20043;-84
2022/04/04 06:40:16;;;;;;;11.57;8.90;;;;;;;6.83;62.27;101080.06;5062322;28;20380;-86
2022/04/04 06:42:43;;;;;;;10.75;8.40;;;;;;;7.15;61.96;101107.00;5058058;28;20037;-82
2022/04/04 06:45:11;;;;;;;12.98;9.45;;;;;;;5.73;65.42;101096.03;5064492;28;20025;-81
2022/04/04 06:47:45;;;;;;;17.13;9.63;;;;;;;7.01;62.57;101108.38;5058329;28;20052;-82
2022/04/04 06:50:13;;;;;;;10.38;9.02;;;;;;;5.45;65.40;101082.16;5062634;28;20055;-81
2022/04/04 06:52:41;;;;;;;11.48;10.38;;;;;;;6.58;63.85;101111.53;5042382;28;20056;-83
2022/04/04 06:55:08;;;;;;;16.80;10.38;;;;;;;6.73;62.80;101086.78;5032183;28;20533;-83
2022/04/04 06:57:36;;;;;;;13.70;10.40;;;;;;;6.13;63.86;101089.44;5060604;28;20408;-82
2022/04/04 07:00:03;;;;;;;13.38;11.20;;;;;;;6.23;63.25;101081.06;5063499;28;20044;-81
2022/04/04 07:02:33;;;;;;;12.63;8.77;;;;;;;6.62;63.22;101127.31;5058443;28;20044;-82
2022/04/04 07:05:00;;;;;;;11.30;9.50;;;;;;;6.15;63.21;101090.38;5066183;28;20049;-84
2022/04/04 07:07:26;;;;;;;11.30;9.55;;;;;;;6.36;63.43;101097.03;5061147;28;20127;-81
2022/04/04 07:09:52;;;;;;;19.52;10.20;;;;;;;6.32;63.71;101106.50;5042806;28;20041;-81
2022/04/04 07:12:18;;;;;;;11.82;9.75;;;;;;;6.52;63.50;101096.63;5063609;28;20021;-84
2022/04/04 07:14:46;;;;;;;13.07;10.27;;;;;;;6.49;63.05;101091.34;5038952;28;20111;-84
2022/04/04 07:17:14;;;;;;;13.40;9.82;;;;;;;6.56;62.53;101116.75;5054335;28;20544;-84
2022/04/04 07:19:41;;;;;;;12.25;10.40;;;;;;;6.26;63.35;101093.31;5058481;28;20037;-82
2022/04/04 07:22:08;;;;;;;15.23;10.73;;;;;;;5.58;66.51;101122.50;5067343;28;20050;-84
2022/04/04 07:24:33;;;;;;;14.95;12.55;;;;;;;6.41;64.04;101125.00;5053628;28;20078;-84
2022/04/04 07:26:59;;;;;;;13.98;12.35;;;;;;;6.47;63.93;101137.34;5068907;28;20033;-85
2022/04/04 07:29:25;;;;;;;16.50;10.88;;;;;;;7.12;62.69;101139.97;5046317;28;20066;-82
2022/04/04 07:31:51;;;;;;;15.02;10.63;;;;;;;7.24;61.62;101124.63;5045586;28;20586;-81
2022/04/04 07:34:16;;;;;;;16.60;13.20;;;;;;;6.91;61.69;101108.97;5061788;28;20067;-82
2022/04/04 07:36:42;;;;;;;14.20;11.43;;;;;;;7.03;62.24;101105.81;5045236;28;20035;-78
2022/04/04 07:39:08;;;;;;;13.15;10.50;;;;;;;6.85;62.82;101114.03;5065348;28;20032;-80
2022/04/04 07:41:35;;;;;;;12.60;11.30;;;;;;;6.72;63.38;101136.31;5023799;28;21094;-78
2022/04/04 07:44:00;;;;;;;26.00;12.10;;;;;;;6.76;64.16;101107.72;5049388;28;20560;-74
2022/04/04 07:46:26;;;;;;;16.58;12.40;;;;;;;7.21;61.77;101123.63;5021770;28;20128;-76
2022/04/04 07:48:55;;;;;;;12.90;11.20;;;;;;;7.49;60.72;101131.31;5038378;28;20028;-75
2022/04/04 07:51:21;;;;;;;12.20;10.65;;;;;;;7.31;61.58;101133.47;5057014;28;20564;-74
2022/04/04 07:53:47;;;;;;;17.92;12.25;;;;;;;6.48;62.91;101136.47;5062285;28;20035;-75
2022/04/04 07:56:13;;;;;;;14.35;11.18;;;;;;;7.26;61.55;101137.69;5053834;28;20393;-75
2022/04/04 07:58:38;;;;;;;16.05;12.85;;;;;;;7.10;61.68;101123.38;5051437;28;20044;-74
2022/04/04 08:01:04;;;;;;;15.82;12.05;;;;;;;6.71;61.97;101169.31;5056251;28;20052;-73
2022/04/04 08:03:29;;;;;;;18.33;12.60;;;;;;;7.07;63.12;101146.78;5049640;28;20024;-75
2022/04/04 08:05:55;;;;;;;14.82;12.57;;;;;;;7.22;61.38;101141.97;5054424;28;20032;-74
2022/04/04 08:08:21;;;;;;;17.25;11.52;;;;;;;6.81;62.33;101115.66;5044290;28;20041;-74
2022/04/04 08:10:46;;;;;;;14.98;11.38;;;;;;;7.29;60.12;101112.56;5043695;28;20480;-73
2022/04/04 08:13:12;;;;;;;16.05;11.35;;;;;;;7.64;59.89;101145.59;5042018;28;20107;-74
2022/04/04 08:15:37;;;;;;;12.88;10.90;;;;;;;7.50;59.19;101133.06;5041189;28;20085;-74
2022/04/04 08:18:04;;;;;;;16.35;9.70;;;;;;;7.59;58.53;101120.25;5057632;28;20027;-74
2022/04/04 08:20:30;;;;;;;13.23;11.10;;;;;;;7.30;59.78;101119.53;5012810;28;20044;-74
2022/04/04 08:23:10;;;;;;;22.50;18.30;;;;;;;7.55;59.28;101130.56;5034378;28;20055;-74
2022/04/04 08:25:35;;;;;;;11.30;9.88;;;;;;;7.56;58.49;101132.31;5032563;28;20061;-72
2022/04/04 08:28:01;;;;;;;14.48;10.60;;;;;;;6.92;59.68;101116.81;5038123;28;20137;-73
2022/04/04 08:30:27;;;;;;;11.55;10.15;;;;;;;7.34;59.13;101150.09;5036016;28;20082;-73
2022/04/04 08:32:52;;;;;;;17.20;11.90;;;;;;;8.06;58.17;101126.53;5037601;28;20064;-74
2022/04/04 08:35:18;;;;;;;11.73;10.52;;;;;;;7.60;58.08;101121.13;5031795;28;20040;-73
2022/04/04 08:37:46;;;;;;;10.85;9.55;;;;;;;7.42;57.31;101128.50;5033291;28;20138;-74
2022/04/04 08:40:13;;;;;;;13.35;11.23;;;;;;;7.56;58.05;101109.72;5031859;28;20472;-73
2022/04/04 08:42:39;;;;;;;15.02;9.52;;;;;;;7.90;57.10;101151.41;5015275;28;20044;-73
2022/04/04 08:45:06;;;;;;;11.63;10.18;;;;;;;8.28;55.83;101113.03;5036138;28;20172;-73
2022/04/04 08:47:32;;;;;;;11.60;10.10;;;;;;;7.86;56.76;101115.59;5014476;28;20435;-74
2022/04/04 08:49:59;;;;;;;14.95;10.55;;;;;;;8.10;56.31;101120.47;5037591;28;20120;-73
2022/04/04 08:52:26;;;;;;;12.52;10.85;;;;;;;8.31;56.19;101135.75;5020403;28;20492;-74
2022/04/04 08:54:52;;;;;;;12.52;10.30;;;;;;;8.22;55.02;101092.00;5014327;28;20064;-74
2022/04/04 08:57:18;;;;;;;15.10;11.23;;;;;;;8.43;54.98;101097.69;5034485;28;20029;-73
2022/04/04 08:59:44;;;;;;;13.00;10.13;;;;;;;7.24;57.59;101093.28;5038564;28;20470;-74
2022/04/04 09:02:13;;;;;;;14.40;11.13;;;;;;;7.91;56.11;101095.69;5036317;28;20065;-73
2022/04/04 09:04:40;;;;;;;16.10;11.35;;;;;;;7.91;57.06;101111.38;5036768;28;20448;-73
2022/04/04 09:07:11;;;;;;;13.45;10.95;;;;;;;7.74;57.64;101085.75;5016119;28;20098;-73
2022/04/04 09:09:44;;;;;;;15.63;10.40;;;;;;;7.92;55.24;101084.41;5017437;28;20049;-73
2022/04/04 09:12:14;;;;;;;14.90;10.48;;;;;;;7.52;55.62;101102.66;5037658;28;20064;-74
2022/04/04 09:14:49;;;;;;;28.50;10.80;;;;;;;7.87;55.12;101093.88;5035425;28;20480;-72
2022/04/04 09:17:16;;;;;;;13.43;11.30;;;;;;;8.15;54.40;101080.53;5038001;28;20148;-73
2022/04/04 09:19:42;;;;;;;12.10;8.82;;;;;;;8.31;53.88;101065.16;5053008;28;20094;-74
2022/04/04 09:22:10;;;;;;;11.73;9.32;;;;;;;8.87;52.73;101081.97;5057915;28;20044;-74
2022/04/04 09:25:02;;;;;;;14.60;9.90;;;;;;;8.59;51.95;101077.97;5056670;28;20113;-73
2022/04/04 09:27:33;;;;;;;12.63;9.98;;;;;;;8.64;51.60;101046.66;5052774;28;20040;-73
2022/04/04 09:30:06;;;;;;;12.10;8.95;;;;;;;8.73;51.21;101052.03;5061345;28;20561;-74
2022/04/04 09:32:46;;;;;;;11.88;9.20;;;;;;;8.85;51.01;101057.50;5056723;28;20044;-73
2022/04/04 09:35:15;;;;;;;21.40;9.55;;;;;;;8.58;51.04;101041.28;5061455;28;21083;-74
2022/04/04 09:37:46;;;;;;;15.02;9.98;;;;;;;9.19;50.55;101075.50;5064335;28;20067;-74
2022/04/04 09:40:17;;;;;;;12.07;9.02;;;;;;;9.28;50.18;101052.94;5046628;28;20059;-74
2022/04/04 09:42:56;;;;;;;11.48;9.60;;;;;;;9.17;48.53;101043.16;5055345;28;22747;-74
2022/04/04 09:45:26;;;;;;;14.00;8.10;;;;;;;9.16;48.87;101051.91;5061677;28;20115;-75
2022/04/04 09:48:08;;;;;;;10.18;8.50;;;;;;;9.47;47.60;101038.41;5041685;28;20111;-74
2022/04/04 09:50:38;;;;;;;9.80;8.13;;;;;;;9.77;47.54;101029.22;5063603;28;20062;-74
2022/04/04 09:53:07;;;;;;;12.25;9.20;;;;;;;10.18;47.29;101030.56;5059641;28;20039;-74
2022/04/04 09:55:34;;;;;;;21.13;9.23;;;;;;;9.13;47.47;101013.47;5057342;28;20106;-73
2022/04/04 09:58:04;;;;;;;13.73;9.70;;;;;;;9.62;46.52;101003.69;5060088;28;20476;-75
2022/04/04 10:00:30;;;;;;;9.35;7.85;;;;;;;7.58;49.74;101010.50;5061173;28;20066;-74
2022/04/04 10:02:58;;;;;;;11.75;8.65;;;;;;;9.25;49.05;101034.59;5062716;28;20029;-75
2022/04/04 10:05:25;;;;;;;11.93;8.50;;;;;;;9.90;47.34;101030.22;5058282;28;20052;-74
2022/04/04 10:07:55;;;;;;;10.50;7.78;;;;;;;9.67;46.47;101015.09;5060858;28;20123;-74
2022/04/04 10:10:25;;;;;;;15.88;9.18;;;;;;;9.76;46.21;100982.88;5040824;28;20115;-74
2022/04/04 10:12:51;;;;;;;10.60;8.63;;;;;;;9.71;45.96;100995.03;5046401;28;20119;-75
2022/04/04 10:15:18;;;;;;;10.52;8.23;;;;;;;10.03;45.98;101011.19;5042991;28;20027;-74
2022/04/04 10:17:44;;;;;;;18.00;8.23;;;;;;;9.05;47.15;101004.59;5046693;28;20094;-73
2022/04/04 10:20:11;;;;;;;14.23;9.50;;;;;;;9.25;46.73;100976.09;5043803;28;20057;-74
2022/04/04 10:22:38;;;;;;;10.77;8.65;;;;;;;9.73;46.68;100994.19;5035297;28;20045;-73
2022/04/04 10:25:07;;;;;;;9.27;7.28;;;;;;;10.10;45.39;100972.81;5037435;28;20033;-73
2022/04/04 10:27:37;;;;;;;10.10;7.53;;;;;;;10.20;45.39;100965.91;5035265;28;20047;-73
2022/04/04 10:30:08;;;;;;;10.23;5.60;;;;;;;9.87;43.28;100989.13;5024537;28;20028;-74
2022/04/04 10:32:34;;;;;;;9.63;5.20;;;;;;;10.39;41.29;100991.50;5019862;28;20037;-74
2022/04/04 10:35:12;;;;;;;9.30;5.13;;;;;;;10.51;40.69;100974.97;5037843;28;20384;-74
2022/04/04 10:37:45;;;;;;;6.72;5.72;;;;;;;11.19;41.25;100969.41;5036103;28;20061;-75
2022/04/04 10:40:27;;;;;;;12.37;8.53;;;;;;;10.58;38.51;100958.44;5033957;28;20106;-76
2022/04/04 10:43:12;;;;;;;6.65;5.82;;;;;;;11.20;38.89;100958.03;5028656;28;20041;-74
2022/04/04 10:45:54;;;;;;;7.97;5.78;;;;;;;11.12;39.19;100954.50;5034712;28;20068;-75
2022/04/04 10:48:25;;;;;;;8.18;5.60;;;;;;;11.39;39.38;100992.28;5009600;28;20068;-75
2022/04/04 10:51:18;;;;;;;9.13;4.18;;;;;;;11.69;38.24;100970.56;5032013;28;20033;-76
2022/04/04 10:53:51;;;;;;;5.93;4.85;;;;;;;11.25;36.81;100959.81;5030956;28;20041;-76
2022/04/04 10:56:19;;;;;;;15.00;5.10;;;;;;;11.31;37.92;100959.84;5032877;28;20063;-76
2022/04/04 10:58:45;;;;;;;9.52;4.53;;;;;;;11.70;37.58;100977.56;5016003;28;20159;-75
2022/04/04 11:01:15;;;;;;;7.75;5.07;;;;;;;10.92;39.05;100951.72;5036250;28;20045;-77
2022/04/04 11:04:00;;;;;;;13.80;5.68;;;;;;;11.27;38.12;100958.94;5019127;28;20040;-75
2022/04/04 11:09:32;;;;;;;9.07;4.75;;;;;;;11.61;37.53;100972.25;5029760;28;20060;-77
2022/04/04 11:12:08;;;;;;;7.47;4.18;;;;;;;11.29;36.94;100941.44;5036686;28;20018;-77
2022/04/04 11:14:41;;;;;;;12.35;4.82;;;;;;;10.85;38.62;100975.28;5033453;28;20040;-76
2022/04/04 11:17:07;;;;;;;;;;;;;;;11.24;37.56;100950.16;5039051;28;20029;-76
2022/04/04 11:20:00;;;;;;;6.82;4.30;;;;;;;10.88;37.70;100967.44;5046683;28;19920;-75
2022/04/04 11:22:28;;;;;;;5.93;4.18;;;;;;;10.40;38.53;100924.19;5058933;28;20082;-74
2022/04/04 11:25:03;;;;;;;7.22;4.90;;;;;;;10.89;38.62;100930.69;5037496;28;20048;-75
2022/04/04 11:27:33;;;;;;;9.20;4.75;;;;;;;10.97;37.59;100957.00;5058605;28;20032;-75
2022/04/04 11:30:04;;;;;;;8.05;5.03;;;;;;;11.19;38.18;100945.78;5046922;28;20033;-73
2022/04/04 11:32:33;;;;;;;6.53;3.78;;;;;;;10.71;38.07;100926.19;5063336;28;20074;-72
2022/04/04 11:35:11;;;;;;;6.90;4.53;;;;;;;11.12;35.84;100936.09;5060660;28;20578;-75
2022/04/04 11:37:47;;;;;;;4.68;3.33;;;;;;;11.31;37.36;100939.72;5055344;28;20044;-76